sensor_id;sensor_type;location;lat;lon;timestamp;temperature;humidity
65972;SHT31;52726;48.852;9.152;2022-12-29T00:01:00;8.55;74.73
65972;SHT31;52726;48.852;9.152;2022-12-29T00:03:26;8.60;74.37
65972;SHT31;52726;48.852;9.152;2022-12-29T00:05:56;8.68;74.17
65972;SHT31;52726;48.852;9.152;2022-12-29T00:08:22;8.67;74.37
65972;SHT31;52726;48.852;9.152;2022-12-29T00:11:26;8.64;74.48
65972;SHT31;52726;48.852;9.152;2022-12-29T00:13:50;8.65;74.59
65972;SHT31;52726;48.852;9.152;2022-12-29T00:16:35;8.62;74.64
65972;SHT31;52726;48.852;9.152;2022-12-29T00:19:01;8.62;74.52
65972;SHT31;52726;48.852;9.152;2022-12-29T00:21:27;8.62;74.09
65972;SHT31;52726;48.852;9.152;2022-12-29T00:24:19;8.71;74.04
65972;SHT31;52726;48.852;9.152;2022-12-29T00:27:13;8.69;74.12
65972;SHT31;52726;48.852;9.152;2022-12-29T00:29:57;8.71;74.06
65972;SHT31;52726;48.852;9.152;2022-12-29T00:32:41;8.73;74.46
65972;SHT31;52726;48.852;9.152;2022-12-29T00:35:35;8.82;73.69
65972;SHT31;52726;48.852;9.152;2022-12-29T00:38:05;8.86;74.07
65972;SHT31;52726;48.852;9.152;2022-12-29T00:40:49;8.91;74.06
65972;SHT31;52726;48.852;9.152;2022-12-29T00:43:33;8.96;73.78
65972;SHT31;52726;48.852;9.152;2022-12-29T00:46:17;9.06;73.47
65972;SHT31;52726;48.852;9.152;2022-12-29T00:48:43;9.16;73.41
65972;SHT31;52726;48.852;9.152;2022-12-29T00:51:26;9.18;72.96
65972;SHT31;52726;48.852;9.152;2022-12-29T00:53:52;9.19;73.36
65972;SHT31;52726;48.852;9.152;2022-12-29T00:56:17;9.15;73.36
65972;SHT31;52726;48.852;9.152;2022-12-29T00:58:42;9.16;73.04
65972;SHT31;52726;48.852;9.152;2022-12-29T01:01:08;9.13;72.77
65972;SHT31;52726;48.852;9.152;2022-12-29T01:03:37;9.12;73.21
65972;SHT31;52726;48.852;9.152;2022-12-29T01:06:04;9.12;72.93
65972;SHT31;52726;48.852;9.152;2022-12-29T01:08:30;9.15;72.52
65972;SHT31;52726;48.852;9.152;2022-12-29T01:11:03;9.12;72.95
65972;SHT31;52726;48.852;9.152;2022-12-29T01:13:28;9.09;73.15
65972;SHT31;52726;48.852;9.152;2022-12-29T01:15:54;9.03;73.39
65972;SHT31;52726;48.852;9.152;2022-12-29T01:18:20;9.02;73.14
65972;SHT31;52726;48.852;9.152;2022-12-29T01:20:46;9.00;73.30
65972;SHT31;52726;48.852;9.152;2022-12-29T01:23:12;8.96;73.44
65972;SHT31;52726;48.852;9.152;2022-12-29T01:25:37;8.95;73.83
65972;SHT31;52726;48.852;9.152;2022-12-29T01:28:02;8.89;74.18
65972;SHT31;52726;48.852;9.152;2022-12-29T01:30:28;8.89;73.77
65972;SHT31;52726;48.852;9.152;2022-12-29T01:32:53;8.91;73.91
65972;SHT31;52726;48.852;9.152;2022-12-29T01:35:18;8.91;73.73
65972;SHT31;52726;48.852;9.152;2022-12-29T01:37:44;8.83;74.43
65972;SHT31;52726;48.852;9.152;2022-12-29T01:40:10;8.83;74.25
65972;SHT31;52726;48.852;9.152;2022-12-29T01:42:35;8.85;74.17
65972;SHT31;52726;48.852;9.152;2022-12-29T01:45:16;8.83;74.36
65972;SHT31;52726;48.852;9.152;2022-12-29T01:47:45;8.85;74.35
65972;SHT31;52726;48.852;9.152;2022-12-29T01:50:26;8.79;74.79
65972;SHT31;52726;48.852;9.152;2022-12-29T01:53:03;8.82;74.71
65972;SHT31;52726;48.852;9.152;2022-12-29T01:55:36;8.81;74.64
65972;SHT31;52726;48.852;9.152;2022-12-29T01:58:04;8.85;74.65
65972;SHT31;52726;48.852;9.152;2022-12-29T02:00:31;8.88;74.44
65972;SHT31;52726;48.852;9.152;2022-12-29T02:02:57;8.82;74.91
65972;SHT31;52726;48.852;9.152;2022-12-29T02:07:59;8.86;74.66
65972;SHT31;52726;48.852;9.152;2022-12-29T02:10:28;8.88;74.54
65972;SHT31;52726;48.852;9.152;2022-12-29T02:12:55;8.88;74.73
65972;SHT31;52726;48.852;9.152;2022-12-29T02:15:34;8.88;75.02
65972;SHT31;52726;48.852;9.152;2022-12-29T02:21:20;8.91;74.84
65972;SHT31;52726;48.852;9.152;2022-12-29T02:29:46;8.92;74.77
65972;SHT31;52726;48.852;9.152;2022-12-29T02:43:16;9.00;74.74
65972;SHT31;52726;48.852;9.152;2022-12-29T02:48:20;9.02;74.68
65972;SHT31;52726;48.852;9.152;2022-12-29T02:51:12;8.99;74.81
65972;SHT31;52726;48.852;9.152;2022-12-29T02:53:40;9.05;74.51
65972;SHT31;52726;48.852;9.152;2022-12-29T02:56:24;9.18;74.08
65972;SHT31;52726;48.852;9.152;2022-12-29T02:58:50;9.19;73.74
65972;SHT31;52726;48.852;9.152;2022-12-29T03:01:23;9.22;73.93
65972;SHT31;52726;48.852;9.152;2022-12-29T03:04:02;9.20;73.81
65972;SHT31;52726;48.852;9.152;2022-12-29T03:06:55;9.16;74.25
65972;SHT31;52726;48.852;9.152;2022-12-29T03:15:03;9.65;72.94
65972;SHT31;52726;48.852;9.152;2022-12-29T03:17:58;9.89;72.10
65972;SHT31;52726;48.852;9.152;2022-12-29T03:20:38;9.94;71.71
65972;SHT31;52726;48.852;9.152;2022-12-29T03:23:05;10.10;71.25
65972;SHT31;52726;48.852;9.152;2022-12-29T03:25:34;10.17;70.70
65972;SHT31;52726;48.852;9.152;2022-12-29T03:28:12;10.28;70.53
65972;SHT31;52726;48.852;9.152;2022-12-29T03:30:40;10.37;70.09
65972;SHT31;52726;48.852;9.152;2022-12-29T03:33:13;10.46;70.14
65972;SHT31;52726;48.852;9.152;2022-12-29T03:35:42;10.51;69.10
65972;SHT31;52726;48.852;9.152;2022-12-29T03:40:55;10.74;69.04
65972;SHT31;52726;48.852;9.152;2022-12-29T03:43:22;10.70;68.63
65972;SHT31;52726;48.852;9.152;2022-12-29T03:45:47;10.71;68.68
65972;SHT31;52726;48.852;9.152;2022-12-29T03:48:13;10.74;68.91
65972;SHT31;52726;48.852;9.152;2022-12-29T03:50:39;10.81;68.46
65972;SHT31;52726;48.852;9.152;2022-12-29T03:53:04;10.85;68.37
65972;SHT31;52726;48.852;9.152;2022-12-29T03:55:29;10.78;68.72
65972;SHT31;52726;48.852;9.152;2022-12-29T03:57:55;10.80;68.68
65972;SHT31;52726;48.852;9.152;2022-12-29T04:00:20;10.84;68.12
65972;SHT31;52726;48.852;9.152;2022-12-29T04:02:46;10.78;68.64
65972;SHT31;52726;48.852;9.152;2022-12-29T04:05:11;10.74;69.06
65972;SHT31;52726;48.852;9.152;2022-12-29T04:07:36;10.70;69.20
65972;SHT31;52726;48.852;9.152;2022-12-29T04:10:02;10.75;68.90
65972;SHT31;52726;48.852;9.152;2022-12-29T04:12:27;10.67;69.27
65972;SHT31;52726;48.852;9.152;2022-12-29T04:14:53;10.61;69.49
65972;SHT31;52726;48.852;9.152;2022-12-29T04:17:18;10.70;69.05
65972;SHT31;52726;48.852;9.152;2022-12-29T04:19:44;10.78;68.65
65972;SHT31;52726;48.852;9.152;2022-12-29T04:22:10;10.70;69.61
65972;SHT31;52726;48.852;9.152;2022-12-29T04:24:36;10.68;69.81
65972;SHT31;52726;48.852;9.152;2022-12-29T04:27:02;10.71;69.43
65972;SHT31;52726;48.852;9.152;2022-12-29T04:29:27;10.70;69.95
65972;SHT31;52726;48.852;9.152;2022-12-29T04:31:53;10.68;70.05
65972;SHT31;52726;48.852;9.152;2022-12-29T04:34:18;10.67;70.22
65972;SHT31;52726;48.852;9.152;2022-12-29T04:36:43;10.70;69.59
65972;SHT31;52726;48.852;9.152;2022-12-29T04:39:09;10.56;70.59
65972;SHT31;52726;48.852;9.152;2022-12-29T04:41:34;10.54;70.55
65972;SHT31;52726;48.852;9.152;2022-12-29T04:43:59;10.44;70.77
65972;SHT31;52726;48.852;9.152;2022-12-29T04:46:25;10.40;70.86
65972;SHT31;52726;48.852;9.152;2022-12-29T04:48:50;10.39;71.16
65972;SHT31;52726;48.852;9.152;2022-12-29T04:51:16;10.40;71.38
65972;SHT31;52726;48.852;9.152;2022-12-29T04:53:41;10.37;71.65
65972;SHT31;52726;48.852;9.152;2022-12-29T04:56:06;10.32;72.12
65972;SHT31;52726;48.852;9.152;2022-12-29T04:58:32;10.37;71.94
65972;SHT31;52726;48.852;9.152;2022-12-29T05:00:57;10.32;72.36
65972;SHT31;52726;48.852;9.152;2022-12-29T05:03:22;10.39;72.28
65972;SHT31;52726;48.852;9.152;2022-12-29T05:05:53;10.32;72.68
65972;SHT31;52726;48.852;9.152;2022-12-29T05:08:19;10.40;72.29
65972;SHT31;52726;48.852;9.152;2022-12-29T05:10:45;10.40;72.70
65972;SHT31;52726;48.852;9.152;2022-12-29T05:13:11;10.32;72.85
65972;SHT31;52726;48.852;9.152;2022-12-29T05:15:36;10.37;73.01
65972;SHT31;52726;48.852;9.152;2022-12-29T05:18:02;10.36;73.12
65972;SHT31;52726;48.852;9.152;2022-12-29T05:20:27;10.43;73.06
65972;SHT31;52726;48.852;9.152;2022-12-29T05:22:52;10.50;72.65
65972;SHT31;52726;48.852;9.152;2022-12-29T05:25:18;10.60;72.61
65972;SHT31;52726;48.852;9.152;2022-12-29T05:27:43;10.65;72.34
65972;SHT31;52726;48.852;9.152;2022-12-29T05:30:09;10.72;72.37
65972;SHT31;52726;48.852;9.152;2022-12-29T05:32:35;10.82;71.87
65972;SHT31;52726;48.852;9.152;2022-12-29T05:35:00;10.85;71.75
65972;SHT31;52726;48.852;9.152;2022-12-29T05:37:25;10.88;71.53
65972;SHT31;52726;48.852;9.152;2022-12-29T05:39:51;10.92;71.70
65972;SHT31;52726;48.852;9.152;2022-12-29T05:42:16;10.92;71.56
65972;SHT31;52726;48.852;9.152;2022-12-29T05:44:42;11.07;70.91
65972;SHT31;52726;48.852;9.152;2022-12-29T05:47:07;11.14;70.68
65972;SHT31;52726;48.852;9.152;2022-12-29T05:49:33;11.11;71.37
65972;SHT31;52726;48.852;9.152;2022-12-29T05:51:58;11.29;70.40
65972;SHT31;52726;48.852;9.152;2022-12-29T05:54:23;11.39;69.85
65972;SHT31;52726;48.852;9.152;2022-12-29T05:56:49;11.42;70.14
65972;SHT31;52726;48.852;9.152;2022-12-29T05:59:14;11.35;70.41
65972;SHT31;52726;48.852;9.152;2022-12-29T06:01:40;11.40;70.40
65972;SHT31;52726;48.852;9.152;2022-12-29T06:04:05;11.35;70.43
65972;SHT31;52726;48.852;9.152;2022-12-29T06:06:30;11.26;70.63
65972;SHT31;52726;48.852;9.152;2022-12-29T06:08:56;11.11;71.39
65972;SHT31;52726;48.852;9.152;2022-12-29T06:11:55;11.05;71.22
65972;SHT31;52726;48.852;9.152;2022-12-29T06:14:41;11.04;71.29
65972;SHT31;52726;48.852;9.152;2022-12-29T06:17:07;11.09;70.85
65972;SHT31;52726;48.852;9.152;2022-12-29T06:19:32;11.04;70.97
65972;SHT31;52726;48.852;9.152;2022-12-29T06:21:58;11.09;70.48
65972;SHT31;52726;48.852;9.152;2022-12-29T06:24:23;11.16;70.25
65972;SHT31;52726;48.852;9.152;2022-12-29T06:26:48;11.02;71.07
65972;SHT31;52726;48.852;9.152;2022-12-29T06:29:14;10.97;71.09
65972;SHT31;52726;48.852;9.152;2022-12-29T06:31:43;10.92;71.12
65972;SHT31;52726;48.852;9.152;2022-12-29T06:34:11;10.87;71.45
65972;SHT31;52726;48.852;9.152;2022-12-29T06:36:37;10.92;70.88
65972;SHT31;52726;48.852;9.152;2022-12-29T06:39:02;11.02;70.79
65972;SHT31;52726;48.852;9.152;2022-12-29T06:41:28;10.95;70.92
65972;SHT31;52726;48.852;9.152;2022-12-29T06:43:53;10.87;71.33
65972;SHT31;52726;48.852;9.152;2022-12-29T06:46:18;10.92;70.84
65972;SHT31;52726;48.852;9.152;2022-12-29T06:48:44;10.92;71.08
65972;SHT31;52726;48.852;9.152;2022-12-29T06:51:09;10.98;70.95
65972;SHT31;52726;48.852;9.152;2022-12-29T06:53:35;10.98;70.71
65972;SHT31;52726;48.852;9.152;2022-12-29T06:56:00;10.97;70.67
65972;SHT31;52726;48.852;9.152;2022-12-29T06:58:25;10.95;70.80
65972;SHT31;52726;48.852;9.152;2022-12-29T07:00:51;11.02;70.53
65972;SHT31;52726;48.852;9.152;2022-12-29T07:03:16;10.98;70.86
65972;SHT31;52726;48.852;9.152;2022-12-29T07:05:41;10.94;70.85
65972;SHT31;52726;48.852;9.152;2022-12-29T07:08:07;10.82;71.19
65972;SHT31;52726;48.852;9.152;2022-12-29T07:10:32;10.77;71.51
65972;SHT31;52726;48.852;9.152;2022-12-29T07:12:57;10.70;71.41
65972;SHT31;52726;48.852;9.152;2022-12-29T07:15:23;10.74;71.44
65972;SHT31;52726;48.852;9.152;2022-12-29T07:17:48;10.70;71.61
65972;SHT31;52726;48.852;9.152;2022-12-29T07:20:15;10.68;71.17
65972;SHT31;52726;48.852;9.152;2022-12-29T07:22:40;10.71;71.35
65972;SHT31;52726;48.852;9.152;2022-12-29T07:25:06;10.75;70.54
65972;SHT31;52726;48.852;9.152;2022-12-29T07:27:32;10.77;70.96
65972;SHT31;52726;48.852;9.152;2022-12-29T07:29:57;10.77;70.96
65972;SHT31;52726;48.852;9.152;2022-12-29T07:32:22;10.75;70.90
65972;SHT31;52726;48.852;9.152;2022-12-29T07:34:48;10.74;71.07
65972;SHT31;52726;48.852;9.152;2022-12-29T07:37:15;10.71;70.84
65972;SHT31;52726;48.852;9.152;2022-12-29T07:39:40;10.63;71.18
65972;SHT31;52726;48.852;9.152;2022-12-29T07:42:06;10.70;70.48
65972;SHT31;52726;48.852;9.152;2022-12-29T07:44:31;10.63;70.64
65972;SHT31;52726;48.852;9.152;2022-12-29T07:46:57;10.61;71.11
65972;SHT31;52726;48.852;9.152;2022-12-29T07:49:22;10.59;70.87
65972;SHT31;52726;48.852;9.152;2022-12-29T07:51:48;10.54;71.52
65972;SHT31;52726;48.852;9.152;2022-12-29T07:54:13;10.42;71.64
65972;SHT31;52726;48.852;9.152;2022-12-29T07:56:39;10.42;71.39
65972;SHT31;52726;48.852;9.152;2022-12-29T07:59:04;10.36;71.57
65972;SHT31;52726;48.852;9.152;2022-12-29T08:01:29;10.33;71.60
65972;SHT31;52726;48.852;9.152;2022-12-29T08:03:55;10.26;72.09
65972;SHT31;52726;48.852;9.152;2022-12-29T08:06:20;10.20;72.20
65972;SHT31;52726;48.852;9.152;2022-12-29T08:08:46;10.20;72.29
65972;SHT31;52726;48.852;9.152;2022-12-29T08:11:12;10.25;71.86
65972;SHT31;52726;48.852;9.152;2022-12-29T08:13:37;10.23;71.90
65972;SHT31;52726;48.852;9.152;2022-12-29T08:16:03;10.19;72.01
65972;SHT31;52726;48.852;9.152;2022-12-29T08:18:28;10.20;72.13
65972;SHT31;52726;48.852;9.152;2022-12-29T08:20:53;10.17;72.49
65972;SHT31;52726;48.852;9.152;2022-12-29T08:23:19;10.15;72.72
65972;SHT31;52726;48.852;9.152;2022-12-29T08:25:44;10.13;72.66
65972;SHT31;52726;48.852;9.152;2022-12-29T08:28:09;10.15;72.67
65972;SHT31;52726;48.852;9.152;2022-12-29T08:30:36;10.12;72.81
65972;SHT31;52726;48.852;9.152;2022-12-29T08:33:01;10.16;72.64
65972;SHT31;52726;48.852;9.152;2022-12-29T08:35:27;10.12;72.55
65972;SHT31;52726;48.852;9.152;2022-12-29T08:37:52;10.12;72.64
65972;SHT31;52726;48.852;9.152;2022-12-29T08:40:17;10.15;72.58
65972;SHT31;52726;48.852;9.152;2022-12-29T08:42:43;10.16;72.75
65972;SHT31;52726;48.852;9.152;2022-12-29T08:45:08;10.15;72.64
65972;SHT31;52726;48.852;9.152;2022-12-29T08:47:34;10.12;72.96
65972;SHT31;52726;48.852;9.152;2022-12-29T08:49:59;10.09;73.13
65972;SHT31;52726;48.852;9.152;2022-12-29T08:52:25;10.10;72.84
65972;SHT31;52726;48.852;9.152;2022-12-29T08:54:50;10.06;73.32
65972;SHT31;52726;48.852;9.152;2022-12-29T08:57:15;10.10;72.90
65972;SHT31;52726;48.852;9.152;2022-12-29T08:59:41;10.17;72.54
65972;SHT31;52726;48.852;9.152;2022-12-29T09:02:10;10.16;73.08
65972;SHT31;52726;48.852;9.152;2022-12-29T09:04:36;10.12;73.55
65972;SHT31;52726;48.852;9.152;2022-12-29T09:07:01;10.15;73.07
65972;SHT31;52726;48.852;9.152;2022-12-29T09:09:27;10.17;73.18
65972;SHT31;52726;48.852;9.152;2022-12-29T09:11:52;10.26;72.99
65972;SHT31;52726;48.852;9.152;2022-12-29T09:14:17;10.39;72.65
65972;SHT31;52726;48.852;9.152;2022-12-29T09:16:43;10.65;71.49
65972;SHT31;52726;48.852;9.152;2022-12-29T09:19:26;10.78;71.60
65972;SHT31;52726;48.852;9.152;2022-12-29T09:21:52;10.98;70.91
65972;SHT31;52726;48.852;9.152;2022-12-29T09:24:17;11.11;70.38
65972;SHT31;52726;48.852;9.152;2022-12-29T09:26:42;11.25;70.16
65972;SHT31;52726;48.852;9.152;2022-12-29T09:29:08;11.32;70.24
65972;SHT31;52726;48.852;9.152;2022-12-29T09:31:33;11.46;69.87
65972;SHT31;52726;48.852;9.152;2022-12-29T09:33:58;11.50;69.50
65972;SHT31;52726;48.852;9.152;2022-12-29T09:36:24;11.56;70.03
65972;SHT31;52726;48.852;9.152;2022-12-29T09:38:49;11.66;69.97
65972;SHT31;52726;48.852;9.152;2022-12-29T09:41:22;11.78;69.54
65972;SHT31;52726;48.852;9.152;2022-12-29T09:51:52;12.18;67.08
65972;SHT31;52726;48.852;9.152;2022-12-29T09:56:52;12.43;66.76
65972;SHT31;52726;48.852;9.152;2022-12-29T09:59:22;12.53;66.41
65972;SHT31;52726;48.852;9.152;2022-12-29T10:01:54;12.63;65.77
65972;SHT31;52726;48.852;9.152;2022-12-29T10:04:22;12.67;66.20
65972;SHT31;52726;48.852;9.152;2022-12-29T10:09:27;12.67;66.49
65972;SHT31;52726;48.852;9.152;2022-12-29T10:16:02;12.57;67.29
65972;SHT31;52726;48.852;9.152;2022-12-29T10:20:58;12.60;66.98
65972;SHT31;52726;48.852;9.152;2022-12-29T10:23:50;12.66;66.85
65972;SHT31;52726;48.852;9.152;2022-12-29T10:26:36;12.63;67.17
65972;SHT31;52726;48.852;9.152;2022-12-29T10:29:04;12.62;68.02
65972;SHT31;52726;48.852;9.152;2022-12-29T10:31:40;12.64;67.49
65972;SHT31;52726;48.852;9.152;2022-12-29T10:34:18;12.69;67.61
65972;SHT31;52726;48.852;9.152;2022-12-29T10:36:47;12.70;67.61
65972;SHT31;52726;48.852;9.152;2022-12-29T10:41:51;12.64;68.16
65972;SHT31;52726;48.852;9.152;2022-12-29T10:44:19;12.66;68.90
65972;SHT31;52726;48.852;9.152;2022-12-29T10:46:54;12.59;68.81
65972;SHT31;52726;48.852;9.152;2022-12-29T10:49:20;12.59;68.83
65972;SHT31;52726;48.852;9.152;2022-12-29T10:51:47;12.66;69.54
65972;SHT31;52726;48.852;9.152;2022-12-29T10:54:45;12.69;70.05
65972;SHT31;52726;48.852;9.152;2022-12-29T10:59:53;12.64;70.76
65972;SHT31;52726;48.852;9.152;2022-12-29T11:02:47;12.67;70.69
65972;SHT31;52726;48.852;9.152;2022-12-29T11:05:23;12.79;71.00
65972;SHT31;52726;48.852;9.152;2022-12-29T11:07:55;12.83;70.05
65972;SHT31;52726;48.852;9.152;2022-12-29T11:10:42;12.90;68.85
65972;SHT31;52726;48.852;9.152;2022-12-29T11:13:24;12.96;69.33
65972;SHT31;52726;48.852;9.152;2022-12-29T11:15:50;12.98;69.74
65972;SHT31;52726;48.852;9.152;2022-12-29T11:18:24;13.01;67.58
65972;SHT31;52726;48.852;9.152;2022-12-29T11:21:02;13.01;68.48
65972;SHT31;52726;48.852;9.152;2022-12-29T11:23:35;13.03;68.64
65972;SHT31;52726;48.852;9.152;2022-12-29T11:28:41;12.98;68.53
65972;SHT31;52726;48.852;9.152;2022-12-29T11:31:08;12.97;68.09
65972;SHT31;52726;48.852;9.152;2022-12-29T11:33:35;12.97;69.02
65972;SHT31;52726;48.852;9.152;2022-12-29T11:36:08;12.91;68.66
65972;SHT31;52726;48.852;9.152;2022-12-29T11:38:39;12.87;68.28
65972;SHT31;52726;48.852;9.152;2022-12-29T11:41:06;12.83;68.57
65972;SHT31;52726;48.852;9.152;2022-12-29T11:43:41;12.76;67.80
65972;SHT31;52726;48.852;9.152;2022-12-29T11:46:14;12.73;67.31
65972;SHT31;52726;48.852;9.152;2022-12-29T11:48:42;12.76;67.10
65972;SHT31;52726;48.852;9.152;2022-12-29T11:51:09;12.69;66.79
65972;SHT31;52726;48.852;9.152;2022-12-29T11:53:43;12.57;68.51
65972;SHT31;52726;48.852;9.152;2022-12-29T11:56:17;12.43;68.60
65972;SHT31;52726;48.852;9.152;2022-12-29T11:58:42;12.35;68.65
65972;SHT31;52726;48.852;9.152;2022-12-29T12:01:34;12.29;67.89
65972;SHT31;52726;48.852;9.152;2022-12-29T12:04:23;12.25;67.85
65972;SHT31;52726;48.852;9.152;2022-12-29T12:07:33;12.24;68.78
65972;SHT31;52726;48.852;9.152;2022-12-29T12:09:58;12.20;69.31
65972;SHT31;52726;48.852;9.152;2022-12-29T12:12:51;12.21;70.51
65972;SHT31;52726;48.852;9.152;2022-12-29T12:15:34;12.14;71.45
65972;SHT31;52726;48.852;9.152;2022-12-29T12:18:08;12.12;71.92
65972;SHT31;52726;48.852;9.152;2022-12-29T12:23:44;12.14;73.13
65972;SHT31;52726;48.852;9.152;2022-12-29T12:26:36;12.10;73.43
65972;SHT31;52726;48.852;9.152;2022-12-29T12:29:14;12.05;73.44
65972;SHT31;52726;48.852;9.152;2022-12-29T12:31:46;12.08;73.55
65972;SHT31;52726;48.852;9.152;2022-12-29T12:34:24;12.11;73.96
65972;SHT31;52726;48.852;9.152;2022-12-29T12:42:55;12.22;72.86
65972;SHT31;52726;48.852;9.152;2022-12-29T12:45:45;12.26;73.62
65972;SHT31;52726;48.852;9.152;2022-12-29T12:51:32;12.43;73.13
65972;SHT31;52726;48.852;9.152;2022-12-29T13:01:41;12.63;72.36
65972;SHT31;52726;48.852;9.152;2022-12-29T13:20:24;12.53;73.59
65972;SHT31;52726;48.852;9.152;2022-12-29T13:22:57;12.48;73.63
65972;SHT31;52726;48.852;9.152;2022-12-29T13:25:40;12.49;73.70
65972;SHT31;52726;48.852;9.152;2022-12-29T13:28:19;12.48;73.92
65972;SHT31;52726;48.852;9.152;2022-12-29T13:31:15;12.39;73.80
65972;SHT31;52726;48.852;9.152;2022-12-29T13:34:03;12.32;74.27
65972;SHT31;52726;48.852;9.152;2022-12-29T13:36:58;12.32;74.04
65972;SHT31;52726;48.852;9.152;2022-12-29T13:39:35;12.28;73.74
65972;SHT31;52726;48.852;9.152;2022-12-29T13:42:03;12.28;74.52
65972;SHT31;52726;48.852;9.152;2022-12-29T13:44:34;12.22;74.53
65972;SHT31;52726;48.852;9.152;2022-12-29T13:47:05;12.20;75.01
65972;SHT31;52726;48.852;9.152;2022-12-29T13:49:32;12.18;74.42
65972;SHT31;52726;48.852;9.152;2022-12-29T13:52:14;12.18;74.61
65972;SHT31;52726;48.852;9.152;2022-12-29T13:55:17;12.12;74.37
65972;SHT31;52726;48.852;9.152;2022-12-29T13:57:53;12.14;74.58
65972;SHT31;52726;48.852;9.152;2022-12-29T14:00:24;12.12;74.60
65972;SHT31;52726;48.852;9.152;2022-12-29T14:08:40;12.17;74.82
65972;SHT31;52726;48.852;9.152;2022-12-29T14:11:09;12.14;75.23
65972;SHT31;52726;48.852;9.152;2022-12-29T14:13:38;12.11;74.77
65972;SHT31;52726;48.852;9.152;2022-12-29T14:16:05;12.10;74.66
65972;SHT31;52726;48.852;9.152;2022-12-29T14:18:33;12.06;74.72
65972;SHT31;52726;48.852;9.152;2022-12-29T14:21:19;12.04;75.25
65972;SHT31;52726;48.852;9.152;2022-12-29T14:23:46;12.01;75.41
65972;SHT31;52726;48.852;9.152;2022-12-29T14:26:15;12.04;75.26
65972;SHT31;52726;48.852;9.152;2022-12-29T14:28:47;12.01;75.72
65972;SHT31;52726;48.852;9.152;2022-12-29T14:36:35;12.08;75.47
65972;SHT31;52726;48.852;9.152;2022-12-29T14:39:02;12.04;75.82
65972;SHT31;52726;48.852;9.152;2022-12-29T14:42:01;11.99;75.54
65972;SHT31;52726;48.852;9.152;2022-12-29T14:44:28;11.95;75.70
65972;SHT31;52726;48.852;9.152;2022-12-29T14:49:28;11.88;76.26
65972;SHT31;52726;48.852;9.152;2022-12-29T14:52:05;11.87;76.02
65972;SHT31;52726;48.852;9.152;2022-12-29T14:57:00;11.83;76.14
65972;SHT31;52726;48.852;9.152;2022-12-29T14:59:28;11.81;75.94
65972;SHT31;52726;48.852;9.152;2022-12-29T15:01:55;11.81;75.79
65972;SHT31;52726;48.852;9.152;2022-12-29T15:04:25;11.81;76.43
65972;SHT31;52726;48.852;9.152;2022-12-29T15:06:52;11.81;76.56
65972;SHT31;52726;48.852;9.152;2022-12-29T15:09:36;11.78;76.19
65972;SHT31;52726;48.852;9.152;2022-12-29T15:12:23;11.76;76.02
65972;SHT31;52726;48.852;9.152;2022-12-29T15:14:56;11.73;76.14
65972;SHT31;52726;48.852;9.152;2022-12-29T15:17:29;11.66;76.34
65972;SHT31;52726;48.852;9.152;2022-12-29T15:19:56;11.59;76.57
65972;SHT31;52726;48.852;9.152;2022-12-29T15:22:22;11.57;76.58
65972;SHT31;52726;48.852;9.152;2022-12-29T15:24:53;11.53;76.70
65972;SHT31;52726;48.852;9.152;2022-12-29T15:27:22;11.49;77.03
65972;SHT31;52726;48.852;9.152;2022-12-29T15:29:48;11.47;76.86
65972;SHT31;52726;48.852;9.152;2022-12-29T15:32:23;11.49;76.74
65972;SHT31;52726;48.852;9.152;2022-12-29T15:34:54;11.46;78.11
65972;SHT31;52726;48.852;9.152;2022-12-29T15:37:26;11.26;80.43
65972;SHT31;52726;48.852;9.152;2022-12-29T15:39:53;10.46;84.08
65972;SHT31;52726;48.852;9.152;2022-12-29T15:42:43;9.77;85.69
65972;SHT31;52726;48.852;9.152;2022-12-29T15:45:12;9.52;87.06
65972;SHT31;52726;48.852;9.152;2022-12-29T15:47:40;9.36;88.39
65972;SHT31;52726;48.852;9.152;2022-12-29T15:50:13;9.30;88.47
65972;SHT31;52726;48.852;9.152;2022-12-29T15:52:40;9.27;88.63
65972;SHT31;52726;48.852;9.152;2022-12-29T15:55:06;9.24;87.93
65972;SHT31;52726;48.852;9.152;2022-12-29T15:57:42;9.27;89.68
65972;SHT31;52726;48.852;9.152;2022-12-29T16:00:29;9.27;89.39
65972;SHT31;52726;48.852;9.152;2022-12-29T16:02:55;9.29;89.25
65972;SHT31;52726;48.852;9.152;2022-12-29T16:05:22;9.27;89.38
65972;SHT31;52726;48.852;9.152;2022-12-29T16:07:53;9.24;89.47
65972;SHT31;52726;48.852;9.152;2022-12-29T16:10:38;9.27;89.52
65972;SHT31;52726;48.852;9.152;2022-12-29T16:15:38;9.23;90.04
65972;SHT31;52726;48.852;9.152;2022-12-29T16:18:04;9.16;90.41
65972;SHT31;52726;48.852;9.152;2022-12-29T16:20:39;9.18;90.78
65972;SHT31;52726;48.852;9.152;2022-12-29T16:23:16;9.13;90.85
65972;SHT31;52726;48.852;9.152;2022-12-29T16:25:43;9.08;91.09
65972;SHT31;52726;48.852;9.152;2022-12-29T16:28:17;9.08;90.94
65972;SHT31;52726;48.852;9.152;2022-12-29T16:30:43;9.08;91.03
65972;SHT31;52726;48.852;9.152;2022-12-29T16:33:29;9.02;90.95
65972;SHT31;52726;48.852;9.152;2022-12-29T16:35:55;9.05;91.17
65972;SHT31;52726;48.852;9.152;2022-12-29T16:38:22;9.06;91.24
65972;SHT31;52726;48.852;9.152;2022-12-29T16:40:53;9.03;91.24
65972;SHT31;52726;48.852;9.152;2022-12-29T16:43:22;9.00;91.32
65972;SHT31;52726;48.852;9.152;2022-12-29T16:50:40;8.96;91.47
65972;SHT31;52726;48.852;9.152;2022-12-29T16:53:21;8.91;91.22
65972;SHT31;52726;48.852;9.152;2022-12-29T16:55:49;8.92;91.94
65972;SHT31;52726;48.852;9.152;2022-12-29T16:58:21;8.93;91.53
65972;SHT31;52726;48.852;9.152;2022-12-29T17:00:47;8.89;91.88
65972;SHT31;52726;48.852;9.152;2022-12-29T17:03:13;8.91;92.00
65972;SHT31;52726;48.852;9.152;2022-12-29T17:05:38;8.86;92.45
65972;SHT31;52726;48.852;9.152;2022-12-29T17:08:19;8.86;92.18
65972;SHT31;52726;48.852;9.152;2022-12-29T17:10:55;8.85;92.18
65972;SHT31;52726;48.852;9.152;2022-12-29T17:13:40;8.86;91.65
65972;SHT31;52726;48.852;9.152;2022-12-29T17:16:07;8.85;91.85
65972;SHT31;52726;48.852;9.152;2022-12-29T17:18:34;8.88;91.90
65972;SHT31;52726;48.852;9.152;2022-12-29T17:21:00;8.88;91.60
65972;SHT31;52726;48.852;9.152;2022-12-29T17:23:26;8.86;91.48
65972;SHT31;52726;48.852;9.152;2022-12-29T17:25:53;8.85;91.74
65972;SHT31;52726;48.852;9.152;2022-12-29T17:28:22;8.86;92.02
65972;SHT31;52726;48.852;9.152;2022-12-29T17:30:49;8.86;92.35
65972;SHT31;52726;48.852;9.152;2022-12-29T17:33:17;8.79;92.24
65972;SHT31;52726;48.852;9.152;2022-12-29T17:35:43;8.81;92.55
65972;SHT31;52726;48.852;9.152;2022-12-29T17:38:30;8.79;92.59
65972;SHT31;52726;48.852;9.152;2022-12-29T17:40:55;8.79;92.76
65972;SHT31;52726;48.852;9.152;2022-12-29T17:43:21;8.73;93.06
65972;SHT31;52726;48.852;9.152;2022-12-29T17:45:51;8.72;93.20
65972;SHT31;52726;48.852;9.152;2022-12-29T17:48:17;8.72;93.27
65972;SHT31;52726;48.852;9.152;2022-12-29T17:50:45;8.65;93.39
65972;SHT31;52726;48.852;9.152;2022-12-29T17:53:13;8.67;93.75
65972;SHT31;52726;48.852;9.152;2022-12-29T17:55:40;8.65;93.78